createdAt,value
2022-08-26T00:00:30.745Z,24.50
2022-08-26T00:02:05.243Z,24.50
2022-08-26T00:03:37.084Z,24.50
2022-08-26T00:05:08.933Z,24.40
2022-08-26T00:06:42.595Z,24.40
2022-08-26T00:08:20.280Z,24.40
2022-08-26T00:09:54.477Z,24.40
2022-08-26T00:11:27.672Z,24.40
2022-08-26T00:12:59.851Z,24.40
2022-08-26T00:14:31.651Z,24.30
2022-08-26T00:16:05.455Z,24.40
2022-08-26T00:17:37.350Z,24.30
2022-08-26T00:19:12.338Z,24.30
2022-08-26T00:20:45.083Z,24.30
2022-08-26T00:22:20.195Z,24.30
2022-08-26T00:23:53.519Z,24.30
2022-08-26T00:25:25.587Z,24.20
2022-08-26T00:26:57.265Z,24.20
2022-08-26T00:28:29.137Z,24.20
2022-08-26T00:30:07.923Z,24.20
2022-08-26T00:31:40.718Z,24.20
2022-08-26T00:33:12.516Z,24.20
2022-08-26T00:34:44.247Z,24.20
2022-08-26T00:36:20.218Z,24.20
2022-08-26T00:37:52.952Z,24.20
2022-08-26T00:39:24.736Z,24.10
2022-08-26T00:40:57.460Z,24.10
2022-08-26T00:42:29.281Z,24.10
2022-08-26T00:44:01.329Z,24.10
2022-08-26T00:45:47.064Z,24.10
2022-08-26T00:47:33.172Z,24.10
2022-08-26T00:49:11.809Z,24.10
2022-08-26T00:50:51.277Z,24.10
2022-08-26T00:52:24.211Z,24.10
2022-08-26T00:54:10.756Z,24.10
2022-08-26T00:55:43.415Z,24.10
2022-08-26T00:57:18.512Z,24.10
2022-08-26T00:58:51.701Z,24.10
2022-08-26T01:00:27.248Z,24.00
2022-08-26T01:01:59.283Z,24.10
2022-08-26T01:03:33.541Z,24.00
2022-08-26T01:05:07.787Z,24.00
2022-08-26T01:06:39.927Z,24.00
2022-08-26T01:08:16.007Z,24.00
2022-08-26T01:09:47.980Z,24.00
2022-08-26T01:11:21.174Z,24.00
2022-08-26T01:12:58.063Z,24.00
2022-08-26T01:14:35.080Z,23.90
2022-08-26T01:16:12.792Z,23.90
2022-08-26T01:17:45.763Z,23.90
2022-08-26T01:19:44.385Z,24.00
2022-08-26T01:21:40.596Z,23.90
2022-08-26T01:23:14.928Z,23.90
2022-08-26T01:24:49.055Z,23.90
2022-08-26T01:26:35.485Z,23.80
2022-08-26T01:28:12.587Z,23.90
2022-08-26T01:29:46.318Z,23.80
2022-08-26T01:31:24.829Z,23.80
2022-08-26T01:32:59.219Z,23.80
2022-08-26T01:34:37.868Z,23.80
2022-08-26T01:36:10.917Z,23.80
2022-08-26T01:37:42.680Z,23.80
2022-08-26T01:39:14.430Z,23.80
2022-08-26T01:40:46.950Z,23.70
2022-08-26T01:42:20.822Z,23.70
2022-08-26T01:43:55.760Z,23.70
2022-08-26T01:45:30.913Z,23.70
2022-08-26T01:47:05.182Z,23.70
2022-08-26T01:48:40.514Z,23.70
2022-08-26T01:50:27.856Z,23.70
2022-08-26T01:52:01.526Z,23.70
2022-08-26T01:53:35.390Z,23.70
2022-08-26T01:55:07.782Z,23.70
2022-08-26T01:56:39.715Z,23.70
2022-08-26T01:58:20.831Z,23.70
2022-08-26T01:59:56.116Z,23.70
2022-08-26T02:01:30.140Z,23.70
2022-08-26T02:03:17.074Z,23.70
2022-08-26T02:04:53.131Z,23.70
2022-08-26T02:06:24.874Z,23.70
2022-08-26T02:07:57.275Z,23.70
2022-08-26T02:09:29.119Z,23.70
2022-08-26T02:11:02.798Z,23.70
2022-08-26T02:12:34.755Z,23.70
2022-08-26T02:14:29.463Z,23.60
2022-08-26T02:16:03.786Z,23.70
2022-08-26T02:17:43.266Z,23.70
2022-08-26T02:19:18.828Z,23.60
2022-08-26T02:20:55.952Z,23.60
2022-08-26T02:22:30.518Z,23.60
2022-08-26T02:24:14.981Z,23.60
2022-08-26T02:25:56.277Z,23.60
2022-08-26T02:27:32.834Z,23.60
2022-08-26T02:29:32.761Z,23.60
2022-08-26T02:31:04.832Z,23.60
2022-08-26T02:32:36.600Z,23.60
2022-08-26T02:34:10.889Z,23.60
2022-08-26T02:35:43.189Z,23.60
2022-08-26T02:37:15.033Z,23.60
2022-08-26T02:38:49.695Z,23.60
2022-08-26T02:40:32.386Z,23.60
2022-08-26T02:42:05.183Z,23.60
2022-08-26T02:43:37.205Z,23.50
2022-08-26T02:45:10.511Z,23.50
2022-08-26T02:46:47.138Z,23.50
2022-08-26T02:48:21.302Z,23.50
2022-08-26T02:49:53.241Z,23.50
2022-08-26T02:51:25.450Z,23.50
2022-08-26T02:52:57.188Z,23.50
2022-08-26T02:54:29.618Z,23.50
2022-08-26T02:56:01.861Z,23.50
2022-08-26T02:57:34.959Z,23.50
2022-08-26T02:59:06.753Z,23.50
2022-08-26T03:00:39.523Z,23.50
2022-08-26T03:02:24.960Z,23.50
2022-08-26T03:03:58.159Z,23.50
2022-08-26T03:05:30.725Z,23.50
2022-08-26T03:07:04.691Z,23.50
2022-08-26T03:08:36.380Z,23.50
2022-08-26T03:10:08.991Z,23.50
2022-08-26T03:11:40.915Z,23.50
2022-08-26T03:13:12.771Z,23.50
2022-08-26T03:14:44.547Z,23.40
2022-08-26T03:16:17.120Z,23.40
2022-08-26T03:17:50.361Z,23.40
2022-08-26T03:19:24.467Z,23.40
2022-08-26T03:20:56.365Z,23.40
2022-08-26T03:22:30.103Z,23.40
2022-08-26T03:24:01.969Z,23.40
2022-08-26T03:25:33.824Z,23.40
2022-08-26T03:27:07.353Z,23.40
2022-08-26T03:28:58.167Z,23.40
2022-08-26T03:30:44.738Z,23.40
2022-08-26T03:32:17.432Z,23.40
2022-08-26T03:33:49.183Z,23.40
2022-08-26T03:35:24.162Z,23.40
2022-08-26T03:36:56.392Z,23.40
2022-08-26T03:38:28.081Z,23.40
2022-08-26T03:40:01.054Z,23.40
2022-08-26T03:41:35.805Z,23.40
2022-08-26T03:43:11.691Z,23.40
2022-08-26T03:44:43.437Z,23.30
2022-08-26T03:46:16.307Z,23.40
2022-08-26T03:47:49.338Z,23.40
2022-08-26T03:49:23.455Z,23.30
2022-08-26T03:50:55.146Z,23.30
2022-08-26T03:52:27.273Z,23.40
2022-08-26T03:54:00.602Z,23.40
2022-08-26T03:55:33.182Z,23.30
2022-08-26T03:57:05.179Z,23.30
2022-08-26T03:58:38.343Z,23.30
2022-08-26T04:00:18.415Z,23.30
2022-08-26T04:01:50.387Z,23.30
2022-08-26T04:03:41.717Z,23.30
2022-08-26T04:05:17.353Z,23.30
2022-08-26T04:06:50.000Z,23.30
2022-08-26T04:08:21.864Z,23.30
2022-08-26T04:09:57.685Z,23.30
2022-08-26T04:11:34.058Z,23.30
2022-08-26T04:13:07.338Z,23.30
2022-08-26T04:14:39.771Z,23.30
2022-08-26T04:16:11.613Z,23.30
2022-08-26T04:17:47.283Z,23.30
2022-08-26T04:19:20.323Z,23.30
2022-08-26T04:20:52.015Z,23.30
2022-08-26T04:22:24.067Z,23.30
2022-08-26T04:23:56.764Z,23.30
2022-08-26T04:25:30.084Z,23.30
2022-08-26T04:27:03.377Z,23.30
2022-08-26T04:28:35.445Z,23.30
2022-08-26T04:30:08.924Z,23.30
2022-08-26T04:31:42.012Z,23.20
2022-08-26T04:33:14.030Z,23.20
2022-08-26T04:34:45.910Z,23.30
2022-08-26T04:36:20.185Z,23.20
2022-08-26T04:37:52.117Z,23.20
2022-08-26T04:39:24.071Z,23.20
2022-08-26T04:40:57.996Z,23.20
2022-08-26T04:42:29.867Z,23.20
2022-08-26T04:44:02.485Z,23.20
2022-08-26T04:45:37.519Z,23.20
2022-08-26T04:47:10.527Z,23.20
2022-08-26T04:48:43.096Z,23.20
2022-08-26T04:50:15.232Z,23.20
2022-08-26T04:51:49.229Z,23.20
2022-08-26T04:53:21.386Z,23.20
2022-08-26T04:54:53.096Z,23.20
2022-08-26T04:56:31.355Z,23.10
2022-08-26T04:58:03.968Z,23.10
2022-08-26T04:59:39.140Z,23.20
2022-08-26T05:01:11.377Z,23.10
2022-08-26T05:02:43.664Z,23.10
2022-08-26T05:04:18.926Z,23.10
2022-08-26T05:05:51.366Z,23.10
2022-08-26T05:07:23.097Z,23.10
2022-08-26T05:08:54.978Z,23.10
2022-08-26T05:10:26.736Z,23.10
2022-08-26T05:11:58.409Z,23.10
2022-08-26T05:13:30.292Z,23.10
2022-08-26T05:15:02.055Z,23.10
2022-08-26T05:16:34.920Z,23.10
2022-08-26T05:18:07.945Z,23.10
2022-08-26T05:19:42.818Z,23.10
2022-08-26T05:21:20.197Z,23.10
2022-08-26T05:22:51.934Z,23.10
2022-08-26T05:24:25.247Z,23.10
2022-08-26T05:25:59.165Z,23.10
2022-08-26T05:27:32.059Z,23.00
2022-08-26T05:29:06.433Z,23.00
2022-08-26T05:30:39.733Z,23.10
2022-08-26T05:32:12.123Z,23.00
2022-08-26T05:33:44.386Z,23.00
2022-08-26T05:35:17.331Z,23.00
2022-08-26T05:36:49.135Z,23.10
2022-08-26T05:38:22.271Z,23.00
2022-08-26T05:39:54.065Z,23.00
2022-08-26T05:41:34.614Z,23.00
2022-08-26T05:43:11.823Z,23.00
2022-08-26T05:44:55.324Z,23.00
2022-08-26T05:46:28.636Z,23.00
2022-08-26T05:48:00.353Z,23.00
2022-08-26T05:49:32.343Z,23.00
2022-08-26T05:51:06.933Z,23.00
2022-08-26T05:52:38.640Z,23.00
2022-08-26T05:54:10.939Z,23.00
2022-08-26T05:55:45.427Z,23.00
2022-08-26T05:57:17.189Z,23.00
2022-08-26T05:58:50.614Z,23.00
2022-08-26T06:00:22.325Z,23.00
2022-08-26T06:01:56.748Z,23.00
2022-08-26T06:03:29.821Z,23.00
2022-08-26T06:05:01.649Z,23.00
2022-08-26T06:06:36.568Z,23.00
2022-08-26T06:08:14.379Z,23.00
2022-08-26T06:09:46.152Z,23.00
2022-08-26T06:11:21.855Z,23.00
2022-08-26T06:12:56.321Z,23.00
2022-08-26T06:14:28.319Z,23.00
2022-08-26T06:16:07.883Z,23.00
2022-08-26T06:17:40.344Z,23.00
2022-08-26T06:19:15.295Z,23.00
2022-08-26T06:20:57.980Z,23.00
2022-08-26T06:22:48.427Z,23.00
2022-08-26T06:24:38.963Z,23.00
2022-08-26T06:26:13.673Z,23.00
2022-08-26T06:27:45.367Z,23.00
2022-08-26T06:29:24.179Z,23.00
2022-08-26T06:30:56.618Z,23.00
2022-08-26T06:32:28.551Z,22.90
2022-08-26T06:34:02.052Z,22.90
2022-08-26T06:35:41.708Z,23.00
2022-08-26T06:37:14.244Z,23.00
2022-08-26T06:38:47.997Z,23.00
2022-08-26T06:40:20.911Z,23.00
2022-08-26T06:41:52.886Z,22.90
2022-08-26T06:43:27.740Z,23.00
2022-08-26T06:45:01.180Z,23.00
2022-08-26T06:46:33.770Z,23.00
2022-08-26T06:48:06.951Z,23.00
2022-08-26T06:49:38.646Z,22.90
2022-08-26T06:51:15.212Z,23.00
2022-08-26T06:52:46.920Z,23.00
2022-08-26T06:54:20.283Z,23.00
2022-08-26T06:55:52.005Z,23.00
2022-08-26T06:57:24.733Z,23.00
2022-08-26T06:58:56.685Z,22.90
2022-08-26T07:00:28.356Z,22.90
2022-08-26T07:02:00.177Z,23.00
2022-08-26T07:03:35.033Z,23.00
2022-08-26T07:05:11.660Z,23.00
2022-08-26T07:06:49.232Z,23.00
2022-08-26T07:08:22.356Z,23.00
2022-08-26T07:09:54.698Z,23.00
2022-08-26T07:11:26.448Z,23.00
2022-08-26T07:12:59.639Z,23.00
2022-08-26T07:14:32.157Z,23.00
2022-08-26T07:16:08.367Z,23.00
2022-08-26T07:17:41.436Z,23.00
2022-08-26T07:19:13.481Z,23.00
2022-08-26T07:20:45.680Z,23.00
2022-08-26T07:22:18.641Z,23.00
2022-08-26T07:23:50.781Z,23.00
2022-08-26T07:25:22.462Z,23.00
2022-08-26T07:26:54.169Z,23.00
2022-08-26T07:28:26.053Z,23.00
2022-08-26T07:29:57.794Z,23.00
2022-08-26T07:31:39.203Z,23.00
2022-08-26T07:33:11.809Z,23.00
2022-08-26T07:34:43.586Z,23.00
2022-08-26T07:36:17.497Z,23.00
2022-08-26T07:37:51.842Z,23.00
2022-08-26T07:39:26.575Z,23.00
2022-08-26T07:40:58.457Z,23.00
2022-08-26T07:42:30.254Z,23.00
2022-08-26T07:44:02.212Z,23.00
2022-08-26T07:45:36.125Z,23.00
2022-08-26T07:47:10.113Z,23.00
2022-08-26T07:48:56.307Z,23.00
2022-08-26T07:50:49.395Z,23.10
2022-08-26T07:52:21.668Z,23.10
2022-08-26T07:53:57.596Z,23.00
2022-08-26T07:55:30.586Z,23.00
2022-08-26T07:57:05.224Z,23.00
2022-08-26T07:58:41.140Z,23.00
2022-08-26T08:00:16.674Z,23.00
2022-08-26T08:01:48.721Z,23.00
2022-08-26T08:03:20.658Z,23.00
2022-08-26T08:04:53.343Z,23.00
2022-08-26T08:06:27.290Z,23.00
2022-08-26T08:08:26.825Z,23.00
2022-08-26T08:09:56.265Z,23.00
2022-08-26T08:11:30.800Z,23.00
2022-08-26T08:13:03.943Z,23.10
2022-08-26T08:14:37.228Z,23.10
2022-08-26T08:16:17.055Z,23.00
2022-08-26T08:17:50.356Z,23.10
2022-08-26T08:19:24.338Z,23.10
2022-08-26T08:21:21.690Z,23.10
2022-08-26T08:22:54.668Z,23.10
2022-08-26T08:24:26.325Z,23.10
2022-08-26T08:26:02.506Z,23.10
2022-08-26T08:27:35.354Z,23.10
2022-08-26T08:29:08.685Z,23.10
2022-08-26T08:30:41.142Z,23.10
2022-08-26T08:32:15.477Z,23.10
2022-08-26T08:33:47.738Z,23.10
2022-08-26T08:35:24.007Z,23.10
2022-08-26T08:36:57.041Z,23.10
2022-08-26T08:38:29.343Z,23.10
2022-08-26T08:40:01.497Z,23.10
2022-08-26T08:41:45.106Z,23.10
2022-08-26T08:43:38.294Z,23.10
2022-08-26T08:45:33.333Z,23.10
2022-08-26T08:47:25.982Z,23.10
2022-08-26T08:48:59.834Z,23.10
2022-08-26T08:50:42.473Z,23.20
2022-08-26T08:52:29.425Z,23.20
2022-08-26T08:54:02.655Z,23.20
2022-08-26T08:55:58.113Z,23.20
2022-08-26T08:58:05.396Z,23.20
2022-08-26T08:59:44.875Z,23.20
2022-08-26T09:01:44.443Z,23.20
2022-08-26T09:03:49.795Z,23.20
2022-08-26T09:05:25.279Z,23.20
2022-08-26T09:06:59.862Z,23.20
2022-08-26T09:08:35.717Z,23.20
2022-08-26T09:10:25.825Z,23.20
2022-08-26T09:11:58.650Z,23.20
2022-08-26T09:13:31.727Z,23.20
2022-08-26T09:15:45.165Z,23.30
2022-08-26T09:17:19.872Z,23.30
2022-08-26T09:19:25.353Z,23.20
2022-08-26T09:21:03.343Z,23.20
2022-08-26T09:22:38.301Z,23.30
2022-08-26T09:24:11.229Z,23.20
2022-08-26T09:26:01.127Z,23.30
2022-08-26T09:27:44.399Z,23.30
2022-08-26T09:29:24.293Z,23.30
2022-08-26T09:31:13.059Z,23.30
2022-08-26T09:33:10.039Z,23.30
2022-08-26T09:35:01.439Z,23.30
2022-08-26T09:36:54.129Z,23.30
2022-08-26T09:38:34.005Z,23.30
2022-08-26T09:40:14.479Z,23.30
2022-08-26T09:42:03.642Z,23.30
2022-08-26T09:43:38.109Z,23.30
2022-08-26T09:45:12.826Z,23.30
2022-08-26T09:46:58.900Z,23.30
2022-08-26T09:48:36.922Z,23.30
2022-08-26T09:50:28.681Z,23.30
2022-08-26T09:52:14.174Z,23.30
2022-08-26T09:53:57.994Z,23.30
2022-08-26T09:55:29.734Z,23.30
2022-08-26T09:57:21.053Z,23.30
2022-08-26T09:58:57.605Z,23.30
2022-08-26T10:00:31.697Z,23.30
2022-08-26T10:02:17.523Z,23.30
2022-08-26T10:03:51.230Z,23.30
2022-08-26T10:05:42.617Z,23.30
2022-08-26T10:07:21.218Z,23.30
2022-08-26T10:09:03.621Z,23.30
2022-08-26T10:10:42.257Z,23.30
2022-08-26T10:12:21.732Z,23.30
2022-08-26T10:14:12.714Z,23.30
2022-08-26T10:15:52.721Z,23.30
2022-08-26T10:17:40.322Z,23.30
2022-08-26T10:19:16.504Z,23.40
2022-08-26T10:21:03.178Z,23.30
2022-08-26T10:22:57.127Z,23.30
2022-08-26T10:24:42.947Z,23.30
2022-08-26T10:26:54.092Z,23.30
2022-08-26T10:28:41.275Z,23.30
2022-08-26T10:30:23.562Z,23.30
2022-08-26T10:32:03.383Z,23.30
2022-08-26T10:33:38.237Z,23.30
2022-08-26T10:35:13.895Z,23.30
2022-08-26T10:37:15.575Z,23.30
2022-08-26T10:38:48.482Z,23.40
2022-08-26T10:40:24.623Z,23.30
2022-08-26T10:42:02.444Z,23.30
2022-08-26T10:43:41.220Z,23.30
2022-08-26T10:45:16.732Z,23.30
2022-08-26T10:46:54.788Z,23.30
2022-08-26T10:48:46.689Z,23.30
2022-08-26T10:50:19.917Z,23.30
2022-08-26T10:52:17.802Z,23.30
2022-08-26T10:53:58.628Z,23.30
2022-08-26T10:55:37.049Z,23.30
2022-08-26T10:57:13.615Z,23.30
2022-08-26T10:59:01.362Z,23.30
2022-08-26T11:01:00.184Z,23.30
2022-08-26T11:02:47.164Z,23.40
2022-08-26T11:04:31.299Z,23.30
2022-08-26T11:06:18.888Z,23.30
2022-08-26T11:08:14.477Z,23.30
2022-08-26T11:09:47.269Z,23.30
2022-08-26T11:11:39.609Z,23.30
2022-08-26T11:13:12.052Z,23.30
2022-08-26T11:14:58.507Z,23.30
2022-08-26T11:16:48.115Z,23.40
2022-08-26T11:18:41.182Z,23.40
2022-08-26T11:20:22.418Z,23.40
2022-08-26T11:22:05.864Z,23.40
2022-08-26T11:23:44.781Z,23.40
2022-08-26T11:25:29.631Z,23.40
2022-08-26T11:27:01.965Z,23.40
2022-08-26T11:28:49.066Z,23.40
2022-08-26T11:30:20.740Z,23.40
2022-08-26T11:31:56.718Z,23.40
2022-08-26T11:33:43.982Z,23.40
2022-08-26T11:35:21.652Z,23.40
2022-08-26T11:36:58.260Z,23.40
2022-08-26T11:38:32.363Z,23.40
2022-08-26T11:40:09.026Z,23.40
2022-08-26T11:41:46.557Z,23.40
2022-08-26T11:43:22.951Z,23.40
2022-08-26T11:44:58.478Z,23.40
2022-08-26T11:46:35.649Z,23.40
2022-08-26T11:48:30.936Z,23.40
2022-08-26T11:50:11.396Z,23.40
2022-08-26T11:51:47.754Z,23.40
2022-08-26T11:53:20.164Z,23.40
2022-08-26T11:55:23.329Z,23.40
2022-08-26T11:56:57.895Z,23.40
2022-08-26T11:58:30.291Z,23.40
2022-08-26T12:00:03.190Z,23.40
2022-08-26T12:01:41.525Z,23.40
2022-08-26T12:03:19.547Z,23.40
2022-08-26T12:04:53.099Z,23.40
2022-08-26T12:06:30.300Z,23.40
2022-08-26T12:08:09.693Z,23.40
2022-08-26T12:10:00.492Z,23.40
2022-08-26T12:11:36.474Z,23.40
2022-08-26T12:13:17.660Z,23.40
2022-08-26T12:15:03.703Z,23.40
2022-08-26T12:16:39.052Z,23.40
2022-08-26T12:18:20.759Z,23.30
2022-08-26T12:20:01.518Z,23.40
2022-08-26T12:21:34.862Z,23.40
2022-08-26T12:23:07.034Z,23.40
2022-08-26T12:24:46.421Z,23.40
2022-08-26T12:26:35.402Z,23.40
2022-08-26T12:28:07.324Z,23.40
2022-08-26T12:29:39.218Z,23.40
2022-08-26T12:31:11.501Z,23.40
2022-08-26T12:33:22.686Z,23.40
2022-08-26T12:34:55.557Z,23.40
2022-08-26T12:36:34.926Z,23.40
2022-08-26T12:38:08.680Z,23.40
2022-08-26T12:39:43.022Z,23.40
2022-08-26T12:41:39.164Z,23.40
2022-08-26T12:43:17.079Z,23.40
2022-08-26T12:44:53.443Z,23.40
2022-08-26T12:46:28.696Z,23.40
2022-08-26T12:48:10.162Z,23.40
2022-08-26T12:49:43.580Z,23.40
2022-08-26T12:51:35.192Z,23.30
2022-08-26T12:53:09.719Z,23.40
2022-08-26T12:54:59.804Z,23.30
2022-08-26T12:56:40.844Z,23.30
2022-08-26T12:58:15.548Z,23.30
2022-08-26T12:59:47.345Z,23.30
2022-08-26T13:01:25.022Z,23.30
2022-08-26T13:02:57.899Z,23.30
2022-08-26T13:04:39.096Z,23.30
2022-08-26T13:06:15.633Z,23.30
2022-08-26T13:08:11.049Z,23.30
2022-08-26T13:09:43.121Z,23.30
2022-08-26T13:11:41.945Z,23.30
2022-08-26T13:13:14.040Z,23.30
2022-08-26T13:14:45.945Z,23.30
2022-08-26T13:16:22.286Z,23.30
2022-08-26T13:17:54.088Z,23.30
2022-08-26T13:19:30.068Z,23.30
2022-08-26T13:21:13.049Z,23.30
2022-08-26T13:22:44.815Z,23.30
2022-08-26T13:24:44.353Z,23.20
2022-08-26T13:26:16.799Z,23.30
2022-08-26T13:27:48.890Z,23.20
2022-08-26T13:29:20.686Z,23.20
2022-08-26T13:30:52.824Z,23.20
2022-08-26T13:32:27.592Z,23.20
2022-08-26T13:33:59.940Z,23.20
2022-08-26T13:35:32.569Z,23.20
2022-08-26T13:37:05.363Z,23.20
2022-08-26T13:38:37.275Z,23.20
2022-08-26T13:40:09.770Z,23.20
2022-08-26T13:41:43.179Z,23.20
2022-08-26T13:43:16.165Z,23.20
2022-08-26T13:44:50.590Z,23.20
2022-08-26T13:46:22.435Z,23.20
2022-08-26T13:47:54.273Z,23.20
2022-08-26T13:49:26.090Z,23.20
2022-08-26T13:50:57.883Z,23.20
2022-08-26T13:52:30.688Z,23.20
2022-08-26T13:54:03.366Z,23.20
2022-08-26T13:55:35.102Z,23.20
2022-08-26T13:57:06.869Z,23.20
2022-08-26T13:58:38.588Z,23.20
2022-08-26T14:00:11.625Z,23.30
2022-08-26T14:01:43.602Z,23.30
2022-08-26T14:03:15.359Z,23.30
2022-08-26T14:04:50.059Z,23.30
2022-08-26T14:06:22.308Z,23.30
2022-08-26T14:07:54.830Z,23.30
2022-08-26T14:09:26.601Z,23.30
2022-08-26T14:10:58.868Z,23.30
2022-08-26T14:12:30.569Z,23.30
2022-08-26T14:14:02.303Z,23.30
2022-08-26T14:15:37.843Z,23.30
2022-08-26T14:17:09.993Z,23.30
2022-08-26T14:18:46.190Z,23.30
2022-08-26T14:20:27.861Z,23.30
2022-08-26T14:22:00.613Z,23.30
2022-08-26T14:23:33.065Z,23.30
2022-08-26T14:25:05.813Z,23.30
2022-08-26T14:26:37.691Z,23.30
2022-08-26T14:28:09.444Z,23.30
2022-08-26T14:29:41.391Z,23.30
2022-08-26T14:31:13.351Z,23.30
2022-08-26T14:32:49.105Z,23.30
2022-08-26T14:34:22.902Z,23.30
2022-08-26T14:36:14.588Z,23.30
2022-08-26T14:37:46.439Z,23.30
2022-08-26T14:39:18.240Z,23.30
2022-08-26T14:40:49.960Z,23.30
2022-08-26T14:42:27.765Z,23.30
2022-08-26T14:44:10.850Z,23.30
2022-08-26T14:45:45.465Z,23.30
2022-08-26T14:47:17.922Z,23.20
2022-08-26T14:48:49.578Z,23.30
2022-08-26T14:50:23.986Z,23.30
2022-08-26T14:51:56.260Z,23.30
2022-08-26T14:53:46.440Z,23.30
2022-08-26T14:55:18.310Z,23.30
2022-08-26T14:56:54.887Z,23.30
2022-08-26T14:58:28.537Z,23.20
2022-08-26T15:00:07.503Z,23.30
2022-08-26T15:01:39.588Z,23.20
2022-08-26T15:03:11.509Z,23.20
2022-08-26T15:04:43.344Z,23.20
2022-08-26T15:06:16.338Z,23.20
2022-08-26T15:07:48.060Z,23.20
2022-08-26T15:09:20.177Z,23.20
2022-08-26T15:10:51.851Z,23.20
2022-08-26T15:12:23.650Z,23.20
2022-08-26T15:13:55.409Z,23.20
2022-08-26T15:15:28.423Z,23.20
2022-08-26T15:17:00.275Z,23.20
2022-08-26T15:18:32.019Z,23.20
2022-08-26T15:20:06.032Z,23.20
2022-08-26T15:21:37.936Z,23.20
2022-08-26T15:23:10.969Z,23.20
2022-08-26T15:24:43.209Z,23.20
2022-08-26T15:26:16.092Z,23.20
2022-08-26T15:27:48.584Z,23.10
2022-08-26T15:29:21.139Z,23.20
2022-08-26T15:30:52.883Z,23.10
2022-08-26T15:32:24.595Z,23.10
2022-08-26T15:34:02.377Z,23.20
2022-08-26T15:35:38.380Z,23.10
2022-08-26T15:37:12.069Z,23.10
2022-08-26T15:38:43.812Z,23.10
2022-08-26T15:40:15.678Z,23.10
2022-08-26T15:41:47.542Z,23.10
2022-08-26T15:43:28.711Z,23.10
2022-08-26T15:45:00.913Z,23.10
2022-08-26T15:46:36.449Z,23.10
2022-08-26T15:48:10.930Z,23.10
2022-08-26T15:49:42.843Z,23.10
2022-08-26T15:51:24.216Z,23.10
2022-08-26T15:52:56.281Z,23.10
2022-08-26T15:54:27.957Z,23.10
2022-08-26T15:56:01.518Z,23.00
2022-08-26T15:57:33.906Z,23.00
2022-08-26T15:59:08.163Z,23.10
2022-08-26T16:00:40.731Z,23.00
2022-08-26T16:02:12.590Z,23.00
2022-08-26T16:03:44.304Z,23.00
2022-08-26T16:05:19.057Z,23.00
2022-08-26T16:06:52.020Z,23.00
2022-08-26T16:08:23.922Z,23.00
2022-08-26T16:09:56.656Z,23.00
2022-08-26T16:11:28.562Z,23.00
2022-08-26T16:13:00.823Z,23.00
2022-08-26T16:14:32.767Z,23.00
2022-08-26T16:16:05.806Z,23.00
2022-08-26T16:17:37.688Z,23.00
2022-08-26T16:19:09.983Z,23.00
2022-08-26T16:21:12.758Z,23.00
2022-08-26T16:22:43.100Z,23.00
2022-08-26T16:24:14.899Z,23.00
2022-08-26T16:25:47.205Z,23.00
2022-08-26T16:27:18.876Z,23.00
2022-08-26T16:28:54.885Z,23.00
2022-08-26T16:30:26.615Z,22.90
2022-08-26T16:31:58.549Z,22.90
2022-08-26T16:33:30.334Z,22.90
2022-08-26T16:35:02.285Z,22.90
2022-08-26T16:36:37.637Z,23.00
2022-08-26T16:38:10.246Z,22.90
2022-08-26T16:39:45.091Z,22.90
2022-08-26T16:41:17.630Z,22.90
2022-08-26T16:42:50.632Z,22.90
2022-08-26T16:44:22.677Z,22.90
2022-08-26T16:45:58.709Z,22.90
2022-08-26T16:47:31.474Z,22.90
2022-08-26T16:49:04.487Z,22.90
2022-08-26T16:50:38.081Z,22.90
2022-08-26T16:52:11.318Z,22.90
2022-08-26T16:53:46.638Z,22.90
2022-08-26T16:55:18.993Z,22.90
2022-08-26T16:56:51.829Z,22.90
2022-08-26T16:58:23.818Z,22.90
2022-08-26T16:59:55.586Z,22.90
2022-08-26T17:01:30.661Z,22.90
2022-08-26T17:03:03.047Z,22.90
2022-08-26T17:04:34.810Z,22.90
2022-08-26T17:06:06.818Z,22.90
2022-08-26T17:07:38.701Z,22.90
2022-08-26T17:09:10.382Z,22.80
2022-08-26T17:12:14.716Z,22.90
2022-08-26T17:13:48.632Z,22.90
2022-08-26T17:15:23.542Z,22.90
2022-08-26T17:16:55.326Z,22.80
2022-08-26T17:18:29.819Z,22.80
2022-08-26T17:20:07.374Z,22.80
2022-08-26T17:21:39.771Z,22.80
2022-08-26T17:23:11.494Z,22.80
2022-08-26T17:24:43.286Z,22.80
2022-08-26T17:26:15.000Z,22.90
2022-08-26T17:27:46.990Z,22.80
2022-08-26T17:29:20.852Z,22.80
2022-08-26T17:30:52.788Z,22.80
2022-08-26T17:32:24.577Z,22.80
2022-08-26T17:33:56.685Z,22.80
2022-08-26T17:35:28.428Z,22.80
2022-08-26T17:37:00.551Z,22.80
2022-08-26T17:38:33.123Z,22.80
2022-08-26T17:40:08.511Z,22.80
2022-08-26T17:41:40.883Z,22.80
2022-08-26T17:43:12.881Z,22.80
2022-08-26T17:44:45.946Z,22.80
2022-08-26T17:46:17.768Z,22.80
2022-08-26T17:47:49.528Z,22.80
2022-08-26T17:49:21.335Z,22.80
2022-08-26T17:50:54.121Z,22.70
2022-08-26T17:52:26.155Z,22.80
2022-08-26T17:53:58.817Z,22.70
2022-08-26T17:55:30.682Z,22.70
2022-08-26T17:57:04.273Z,22.70
2022-08-26T17:58:51.393Z,22.70
2022-08-26T18:00:27.546Z,22.70
2022-08-26T18:01:59.648Z,22.70
2022-08-26T18:03:32.121Z,22.70
2022-08-26T18:05:05.336Z,22.70
2022-08-26T18:06:38.156Z,22.70
2022-08-26T18:08:09.883Z,22.70
2022-08-26T18:09:41.844Z,22.70
2022-08-26T18:11:17.729Z,22.70
2022-08-26T18:12:49.523Z,22.70
2022-08-26T18:14:23.792Z,22.70
2022-08-26T18:15:55.784Z,22.70
2022-08-26T18:17:30.587Z,22.70
2022-08-26T18:19:02.296Z,22.70
2022-08-26T18:20:35.077Z,22.70
2022-08-26T18:22:07.183Z,22.70
2022-08-26T18:23:39.072Z,22.70
2022-08-26T18:25:14.215Z,22.70
2022-08-26T18:26:49.419Z,22.70
2022-08-26T18:28:21.575Z,22.70
2022-08-26T18:29:54.472Z,22.70
2022-08-26T18:31:26.846Z,22.70
2022-08-26T18:32:58.656Z,22.70
2022-08-26T18:34:35.465Z,22.70
2022-08-26T18:36:07.397Z,22.70
2022-08-26T18:37:39.679Z,22.70
2022-08-26T18:39:13.424Z,22.70
2022-08-26T18:40:45.585Z,22.70
2022-08-26T18:42:17.304Z,22.70
2022-08-26T18:43:51.005Z,22.70
2022-08-26T18:45:22.865Z,22.70
2022-08-26T18:46:54.569Z,22.70
2022-08-26T18:48:26.641Z,22.60
2022-08-26T18:49:58.401Z,22.60
2022-08-26T18:51:32.546Z,22.60
2022-08-26T18:53:04.257Z,22.60
2022-08-26T18:54:36.122Z,22.60
2022-08-26T18:56:07.902Z,22.60
2022-08-26T18:57:39.694Z,22.60
2022-08-26T18:59:12.617Z,22.60
2022-08-26T19:00:44.310Z,22.60
2022-08-26T19:02:16.117Z,22.50
2022-08-26T19:03:48.686Z,22.50
2022-08-26T19:05:20.920Z,22.50
2022-08-26T19:06:53.110Z,22.50
2022-08-26T19:08:24.934Z,22.50
2022-08-26T19:09:57.142Z,22.50
2022-08-26T19:11:32.614Z,22.50
2022-08-26T19:13:09.858Z,22.50
2022-08-26T19:14:41.888Z,22.50
2022-08-26T19:16:24.336Z,22.50
2022-08-26T19:17:56.835Z,22.50
2022-08-26T19:19:28.822Z,22.50
2022-08-26T19:21:03.073Z,22.50
2022-08-26T19:22:34.912Z,22.50
2022-08-26T19:24:15.241Z,22.50
2022-08-26T19:25:50.319Z,22.40
2022-08-26T19:27:22.075Z,22.40
2022-08-26T19:28:54.160Z,22.40
2022-08-26T19:30:25.986Z,22.40
2022-08-26T19:32:01.982Z,22.40
2022-08-26T19:33:33.718Z,22.40
2022-08-26T19:35:06.134Z,22.40
2022-08-26T19:36:38.707Z,22.40
2022-08-26T19:38:15.351Z,22.40
2022-08-26T19:39:47.844Z,22.40
2022-08-26T19:41:37.264Z,22.40
2022-08-26T19:43:10.720Z,22.40
2022-08-26T19:45:02.728Z,22.40
2022-08-26T19:46:34.773Z,22.40
2022-08-26T19:48:06.905Z,22.40
2022-08-26T19:49:39.105Z,22.30
2022-08-26T19:51:19.089Z,22.30
2022-08-26T19:52:50.887Z,22.30
2022-08-26T19:54:22.810Z,22.40
2022-08-26T19:55:54.518Z,22.30
2022-08-26T19:57:26.464Z,22.30
2022-08-26T19:58:58.382Z,22.30
2022-08-26T20:00:31.715Z,22.30
2022-08-26T20:02:10.842Z,22.30
2022-08-26T20:03:45.928Z,22.30
2022-08-26T20:05:20.370Z,22.30
2022-08-26T20:06:52.097Z,22.30
2022-08-26T20:08:29.663Z,22.30
2022-08-26T20:10:01.659Z,22.30
2022-08-26T20:11:33.427Z,22.30
2022-08-26T20:13:05.115Z,22.20
2022-08-26T20:14:40.359Z,22.20
2022-08-26T20:16:12.333Z,22.20
2022-08-26T20:17:44.596Z,22.20
2022-08-26T20:19:37.480Z,22.20
2022-08-26T20:21:27.845Z,22.20
2022-08-26T20:23:00.073Z,22.20
2022-08-26T20:24:32.495Z,22.20
2022-08-26T20:26:04.631Z,22.20
2022-08-26T20:27:38.254Z,22.20
2022-08-26T20:29:12.557Z,22.20
2022-08-26T20:30:44.232Z,22.10
2022-08-26T20:32:16.506Z,22.20
2022-08-26T20:33:48.667Z,22.20
2022-08-26T20:35:20.520Z,22.20
2022-08-26T20:36:52.919Z,22.10